Time;durP1;ratioP1;P1;durP2;ratioP2;P2;SDS_P1;SDS_P2;PMS_P1;PMS_P2;Temp;Humidity;BMP_temperature;BMP_pressure;BME280_temperature;BME280_humidity;BME280_pressure;Samples;Min_cycle;Max_cycle;Signal;HPM_P1;HPM_P2
2022/07/28 00:02:15;;;;;;;1.73;1.63;;;21.70;65.30;22.30;96464.00;;;;5113083;28;20281;-85
2022/07/28 00:04:42;;;;;;;2.03;1.93;;;21.70;65.30;22.30;96465.00;;;;5105119;28;20282;-86
2022/07/28 00:07:10;;;;;;;2.37;2.23;;;21.70;65.40;22.30;96458.00;;;;5113397;28;20241;-85
2022/07/28 00:09:37;;;;;;;2.27;2.10;;;21.70;65.50;22.30;96458.00;;;;5107637;28;20223;-86
2022/07/28 00:12:05;;;;;;;1.90;1.80;;;21.70;65.60;22.30;96455.00;;;;5103371;28;20254;-86
2022/07/28 00:14:33;;;;;;;2.07;1.97;;;21.60;65.50;22.30;96453.00;;;;5109544;28;20254;-86
2022/07/28 00:17:00;;;;;;;2.33;2.00;;;21.60;65.40;22.20;96448.00;;;;5112490;28;20281;-85
2022/07/28 00:19:28;;;;;;;1.97;1.87;;;21.60;65.60;22.20;96451.00;;;;5112675;28;20722;-86
2022/07/28 00:21:55;;;;;;;2.33;2.23;;;21.60;65.70;22.20;96454.00;;;;5112396;28;20200;-85
2022/07/28 00:24:23;;;;;;;2.13;1.93;;;21.60;65.80;22.20;96448.00;;;;5113918;28;20621;-86
2022/07/28 00:26:50;;;;;;;2.10;1.90;;;21.60;65.90;22.20;96454.00;;;;5112379;28;20196;-86
2022/07/28 00:29:19;;;;;;;2.23;2.13;;;21.60;66.10;22.20;96437.00;;;;5112315;28;20317;-85
2022/07/28 00:31:48;;;;;;;2.30;2.10;;;21.50;66.10;22.20;96443.00;;;;5112326;28;20198;-85
2022/07/28 00:34:15;;;;;;;2.90;2.30;;;21.50;66.20;22.20;96444.00;;;;5111004;28;20271;-85
2022/07/28 00:36:44;;;;;;;2.50;2.40;;;21.50;66.40;22.20;96444.00;;;;5110567;28;20202;-85
2022/07/28 00:39:12;;;;;;;2.17;2.07;;;21.50;66.40;22.10;96446.00;;;;5112917;28;20241;-85
2022/07/28 00:41:39;;;;;;;2.10;2.00;;;21.50;66.40;22.10;96440.00;;;;5112776;28;20237;-85
2022/07/28 00:44:07;;;;;;;2.23;2.07;;;21.50;66.60;22.10;96440.00;;;;5112061;28;20196;-85
2022/07/28 00:46:36;;;;;;;2.50;2.20;;;21.50;66.70;22.10;96440.00;;;;5112567;28;20195;-85
2022/07/28 00:49:05;;;;;;;2.47;2.27;;;21.40;66.70;22.10;96442.00;;;;5112570;28;20272;-85
2022/07/28 00:51:32;;;;;;;2.73;2.47;;;21.40;66.60;22.00;96447.00;;;;5104175;28;20194;-86
2022/07/28 00:54:00;;;;;;;2.83;2.63;;;21.40;66.60;22.00;96435.00;;;;5111774;28;20293;-86
2022/07/28 00:56:27;;;;;;;2.40;2.20;;;21.40;66.60;22.00;96437.00;;;;5111751;28;20648;-86
2022/07/28 00:58:54;;;;;;;3.00;2.47;;;21.40;66.70;22.00;96431.00;;;;5112080;28;20289;-86
2022/07/28 01:01:22;;;;;;;2.60;2.50;;;21.40;66.70;22.00;96428.00;;;;5111522;28;20221;-85
2022/07/28 01:03:53;;;;;;;3.77;2.53;;;21.40;66.80;21.90;96432.00;;;;5112092;28;20194;-86
2022/07/28 01:06:52;;;;;;;2.83;2.40;;;21.30;67.00;21.90;96429.00;;;;5110985;28;20293;-86
2022/07/28 01:09:48;;;;;;;2.70;2.50;;;21.30;66.70;21.90;96424.00;;;;5110284;28;20258;-86
2022/07/28 01:12:40;;;;;;;2.50;2.40;;;21.30;66.70;21.80;96429.00;;;;5099712;28;20225;-86
2022/07/28 01:15:22;;;;;;;2.43;2.10;;;21.30;67.30;21.80;96421.00;;;;5101209;28;20229;-85
2022/07/28 01:18:01;;;;;;;2.53;2.37;;;21.20;67.30;21.80;96421.00;;;;5112358;28;20602;-86
2022/07/28 01:20:37;;;;;;;2.53;2.33;;;21.20;67.50;21.80;96424.00;;;;5112083;28;20219;-86
2022/07/28 01:23:59;;;;;;;2.70;2.40;;;21.20;67.60;21.70;96418.00;;;;5112669;28;20221;-86
2022/07/28 01:26:50;;;;;;;2.50;2.40;;;21.20;67.30;21.70;96422.00;;;;5060020;28;20297;-86
2022/07/28 01:29:36;;;;;;;2.63;2.43;;;21.20;67.80;21.70;96419.00;;;;5111847;28;20253;-86
2022/07/28 01:32:10;;;;;;;3.40;3.10;;;21.10;67.80;21.70;96416.00;;;;5111979;28;20240;-86
2022/07/28 01:34:48;;;;;;;2.93;2.50;;;21.10;68.10;21.70;96416.00;;;;5106733;28;20273;-86
2022/07/28 01:37:25;;;;;;;2.77;2.57;;;21.10;68.30;21.70;96409.00;;;;5114887;28;20233;-85
2022/07/28 01:39:59;;;;;;;2.73;2.53;;;21.10;69.00;21.60;96404.00;;;;5125245;28;20202;-86
2022/07/28 01:42:34;;;;;;;3.40;3.10;;;21.10;68.50;21.60;96402.00;;;;5127238;28;20201;-86
2022/07/28 01:45:03;;;;;;;3.23;2.93;;;21.00;68.30;21.60;96411.00;;;;5126525;28;20897;-85
2022/07/28 01:47:34;;;;;;;3.23;2.93;;;21.00;68.50;21.60;96399.00;;;;5118388;28;20196;-86
2022/07/28 01:50:06;;;;;;;3.30;3.00;;;21.00;68.50;21.60;96392.00;;;;5118436;28;20331;-86
2022/07/28 01:52:36;;;;;;;4.00;3.70;;;21.00;68.60;21.50;96389.00;;;;5117114;27;20303;-85
2022/07/28 01:55:06;;;;;;;3.97;3.67;;;21.00;68.70;21.50;96389.00;;;;5113684;28;20774;-86
2022/07/28 01:57:35;;;;;;;3.93;3.63;;;20.90;68.90;21.50;96387.00;;;;5110844;28;20195;-86
2022/07/28 02:00:06;;;;;;;3.20;3.00;;;20.90;69.10;21.50;96383.00;;;;5117291;28;20242;-86
2022/07/28 02:02:37;;;;;;;4.00;3.70;;;20.90;69.10;21.50;96384.00;;;;5109592;28;20202;-86
2022/07/28 02:05:07;;;;;;;4.50;4.20;;;20.90;69.20;21.50;96382.00;;;;5111247;28;20233;-86
2022/07/28 02:07:37;;;;;;;3.67;3.43;;;20.90;69.20;21.50;96382.00;;;;5115556;28;20734;-86
2022/07/28 02:10:07;;;;;;;3.87;3.57;;;20.90;69.20;21.50;96386.00;;;;5114810;28;20215;-86
2022/07/28 02:12:37;;;;;;;4.77;4.37;;;20.80;69.30;21.40;96384.00;;;;5111388;28;20640;-86
2022/07/28 02:15:10;;;;;;;4.17;3.87;;;20.80;69.40;21.40;96389.00;;;;5114524;28;20194;-86
2022/07/28 02:17:43;;;;;;;4.53;4.20;;;20.80;69.40;21.40;96387.00;;;;5115400;28;20202;-86
2022/07/28 02:20:13;;;;;;;4.43;4.00;;;20.80;70.20;21.40;96386.00;;;;5115235;28;20210;-86
2022/07/28 02:22:42;;;;;;;4.50;4.10;;;20.80;69.50;21.30;96384.00;;;;5114813;28;20201;-86
2022/07/28 02:25:11;;;;;;;4.57;4.17;;;20.80;69.50;21.30;96382.00;;;;5109584;28;20281;-86
2022/07/28 02:27:44;;;;;;;4.63;4.33;;;20.70;69.60;21.30;96383.00;;;;5114674;28;20237;-86
2022/07/28 02:30:32;;;;;;;4.53;4.23;;;20.70;69.70;21.30;96376.00;;;;5114258;28;20217;-86
2022/07/28 02:33:07;;;;;;;5.07;4.33;;;20.70;69.80;21.20;96377.00;;;;5114871;28;20210;-86
2022/07/28 02:35:44;;;;;;;5.07;4.67;;;20.70;69.90;21.20;96377.00;;;;5114342;28;20194;-86
2022/07/28 02:38:20;;;;;;;5.10;4.60;;;20.60;70.00;21.20;96378.00;;;;5114615;28;20206;-85
2022/07/28 02:40:52;;;;;;;5.20;4.70;;;20.60;70.00;21.20;96370.00;;;;5114393;28;20621;-86
2022/07/28 02:43:26;;;;;;;4.60;4.30;;;20.60;70.30;21.20;96371.00;;;;5114172;28;20230;-86
2022/07/28 02:45:58;;;;;;;5.60;5.17;;;20.60;70.50;21.20;96373.00;;;;5106131;28;20194;-86
2022/07/28 02:48:35;;;;;;;4.77;4.47;;;20.60;70.70;21.20;96371.00;;;;5114367;28;20231;-86
2022/07/28 02:51:04;;;;;;;5.37;4.97;;;20.50;70.80;21.10;96377.00;;;;5107261;28;20189;-86
2022/07/28 02:53:32;;;;;;;5.70;5.30;;;20.50;70.80;21.10;96376.00;;;;5102977;28;20317;-86
2022/07/28 02:56:00;;;;;;;5.60;5.03;;;20.50;70.80;21.10;96372.00;;;;5113921;28;20230;-86
2022/07/28 02:58:29;;;;;;;5.70;5.20;;;20.50;71.50;21.10;96372.00;;;;5114340;28;20699;-86
2022/07/28 03:00:58;;;;;;;5.60;5.20;;;20.50;71.10;21.10;96383.00;;;;5113946;28;20198;-86
2022/07/28 03:03:27;;;;;;;5.70;5.20;;;20.50;71.10;21.10;96379.00;;;;5110189;28;20249;-86
2022/07/28 03:05:54;;;;;;;4.93;4.53;;;20.50;71.20;21.10;96378.00;;;;5100075;28;20218;-86
2022/07/28 03:08:22;;;;;;;6.27;5.67;;;20.50;71.20;21.00;96377.00;;;;5101762;28;20226;-86
2022/07/28 03:10:49;;;;;;;6.40;5.80;;;20.50;71.10;21.10;96379.00;;;;5111301;28;20250;-86
2022/07/28 03:13:16;;;;;;;6.37;5.77;;;20.50;71.30;21.00;96379.00;;;;5113205;28;20699;-86
2022/07/28 03:15:43;;;;;;;7.23;6.07;;;20.50;71.40;21.00;96378.00;;;;5113319;28;20700;-86
2022/07/28 03:18:10;;;;;;;6.23;5.63;;;20.40;71.40;21.00;96379.00;;;;5113770;28;20228;-86
2022/07/28 03:20:39;;;;;;;7.00;6.33;;;20.40;71.50;21.00;96377.00;;;;5105167;28;20238;-86
2022/07/28 03:23:08;;;;;;;7.17;6.47;;;20.40;71.60;21.00;96378.00;;;;5116843;27;20222;-86
2022/07/28 03:25:43;;;;;;;7.10;6.43;;;20.40;71.70;21.00;96382.00;;;;5113210;28;20194;-86
2022/07/28 03:28:18;;;;;;;7.00;6.37;;;20.40;71.90;21.00;96380.00;;;;5108318;28;20278;-86
2022/07/28 03:30:57;;;;;;;7.47;6.63;;;20.40;72.00;21.00;96384.00;;;;5113678;28;20230;-86
2022/07/28 03:33:24;;;;;;;7.07;6.40;;;20.40;72.10;21.00;96385.00;;;;5107866;28;20707;-86
2022/07/28 03:35:57;;;;;;;7.37;6.67;;;20.40;72.10;21.00;96382.00;;;;5104790;28;20195;-86
2022/07/28 03:38:33;;;;;;;8.07;6.13;;;20.30;72.20;21.00;96389.00;;;;5113386;28;20202;-86
2022/07/28 03:41:03;;;;;;;7.00;6.33;;;20.30;72.30;20.90;96390.00;;;;5113064;28;20214;-86
2022/07/28 03:43:32;;;;;;;6.90;6.30;;;20.30;72.30;20.90;96392.00;;;;5113056;28;20286;-86
2022/07/28 03:46:00;;;;;;;7.50;6.80;;;20.30;72.30;20.90;96390.00;;;;5113162;28;20619;-86
2022/07/28 03:48:29;;;;;;;7.33;6.73;;;20.30;72.50;20.90;96391.00;;;;5113203;28;20205;-86
2022/07/28 03:50:59;;;;;;;8.57;7.03;;;20.30;72.70;20.90;96394.00;;;;5113060;28;20183;-86
2022/07/28 03:53:29;;;;;;;7.70;7.00;;;20.30;72.90;20.90;96388.00;;;;5109596;28;20228;-86
2022/07/28 03:55:57;;;;;;;7.83;7.13;;;20.30;72.90;20.90;96384.00;;;;5112781;28;20734;-86
2022/07/28 03:58:26;;;;;;;8.33;7.40;;;20.30;72.90;20.90;96387.00;;;;5113307;28;20275;-86
2022/07/28 04:00:54;;;;;;;7.77;7.03;;;20.30;72.90;20.90;96387.00;;;;5113241;28;20215;-86
2022/07/28 04:03:21;;;;;;;7.50;6.80;;;20.30;72.80;20.90;96390.00;;;;5112499;28;20228;-86
2022/07/28 04:05:49;;;;;;;7.30;6.60;;;20.30;72.90;20.90;96389.00;;;;5112048;28;20195;-86
2022/07/28 04:08:17;;;;;;;8.20;7.37;;;20.30;72.90;20.90;96383.00;;;;5112676;28;20272;-86
2022/07/28 04:10:44;;;;;;;7.83;6.83;;;20.30;73.00;20.90;96388.00;;;;5112304;28;20273;-86
2022/07/28 04:13:11;;;;;;;7.33;6.67;;;20.30;73.10;20.90;96387.00;;;;5112233;28;20310;-86
2022/07/28 04:15:39;;;;;;;7.90;7.20;;;20.30;73.20;20.90;96393.00;;;;5113025;28;20298;-85
2022/07/28 04:18:06;;;;;;;8.17;7.47;;;20.30;73.40;20.90;96388.00;;;;5113495;28;20202;-85
2022/07/28 04:20:33;;;;;;;7.93;7.13;;;20.30;74.10;20.90;96389.00;;;;5113195;28;20257;-85
2022/07/28 04:23:01;;;;;;;8.20;7.40;;;20.30;73.40;20.90;96386.00;;;;5112992;28;20711;-86
2022/07/28 04:25:29;;;;;;;9.57;7.33;;;20.30;73.30;20.90;96384.00;;;;5113062;28;20256;-85
2022/07/28 04:27:56;;;;;;;7.43;6.77;;;20.30;73.30;20.90;96385.00;;;;5107565;28;20219;-86
2022/07/28 04:30:26;;;;;;;8.30;7.50;;;20.30;73.30;20.90;96385.00;;;;5104414;28;20298;-85
2022/07/28 04:32:56;;;;;;;9.70;7.33;;;20.30;73.30;20.90;96381.00;;;;5108876;28;20194;-87
2022/07/28 04:35:26;;;;;;;8.23;7.43;;;20.20;73.30;20.80;96390.00;;;;5111981;28;20256;-85
2022/07/28 04:37:57;;;;;;;7.93;7.13;;;20.30;73.50;20.80;96383.00;;;;5105853;28;20203;-85
2022/07/28 04:40:25;;;;;;;7.63;6.93;;;20.30;73.50;20.80;96385.00;;;;5100999;28;20221;-85
2022/07/28 04:42:54;;;;;;;8.73;7.93;;;20.20;73.50;20.80;96388.00;;;;5109202;28;20199;-84
2022/07/28 04:45:22;;;;;;;8.90;7.43;;;20.20;73.60;20.80;96396.00;;;;5111924;28;20655;-85
2022/07/28 04:47:50;;;;;;;9.47;7.83;;;20.20;73.60;20.80;96389.00;;;;5112894;28;20233;-85
2022/07/28 04:50:19;;;;;;;7.63;6.73;;;20.20;73.70;20.80;96389.00;;;;5113291;28;20225;-85
2022/07/28 04:52:48;;;;;;;7.77;6.97;;;20.20;73.90;20.80;96389.00;;;;5113100;28;20200;-85
2022/07/28 04:55:16;;;;;;;8.27;7.43;;;20.20;74.20;20.80;96391.00;;;;5116101;28;20223;-86
2022/07/28 04:57:44;;;;;;;8.07;7.20;;;20.20;74.30;20.80;96395.00;;;;5115359;28;20191;-86
2022/07/28 05:00:14;;;;;;;7.10;6.37;;;20.20;74.40;20.80;96387.00;;;;5115023;28;20301;-86
2022/07/28 05:02:44;;;;;;;7.90;7.20;;;20.20;74.40;20.90;96392.00;;;;5113284;28;20230;-86
2022/07/28 05:05:12;;;;;;;8.00;6.87;;;20.20;74.40;20.90;96393.00;;;;5113261;28;20294;-85
2022/07/28 05:07:40;;;;;;;8.13;7.23;;;20.30;74.50;20.90;96395.00;;;;5112993;28;20230;-85
2022/07/28 05:10:10;;;;;;;7.33;6.70;;;20.30;74.60;20.90;96401.00;;;;5113019;28;20736;-83
2022/07/28 05:12:38;;;;;;;8.47;7.57;;;20.30;74.70;21.00;96404.00;;;;5112473;28;20198;-85
2022/07/28 05:15:06;;;;;;;7.80;7.10;;;20.30;74.70;21.00;96409.00;;;;5111952;28;20238;-85
2022/07/28 05:17:36;;;;;;;9.40;7.43;;;20.30;74.70;21.00;96404.00;;;;5111944;28;20661;-85
2022/07/28 05:20:07;;;;;;;7.77;7.07;;;20.30;74.90;21.00;96409.00;;;;5112212;28;20225;-85
2022/07/28 05:22:42;;;;;;;7.47;6.70;;;20.40;74.90;21.10;96407.00;;;;5113280;28;20774;-85
2022/07/28 05:25:18;;;;;;;7.27;6.43;;;20.40;74.80;21.10;96407.00;;;;5116080;27;20221;-84
2022/07/28 05:27:47;;;;;;;7.20;6.50;;;20.40;74.80;21.10;96404.00;;;;5116571;28;20218;-85
2022/07/28 05:30:16;;;;;;;6.87;6.17;;;20.50;74.90;21.20;96409.00;;;;5116670;28;20215;-84
2022/07/28 05:32:45;;;;;;;7.23;6.33;;;20.50;75.00;21.20;96397.00;;;;5116752;28;20287;-85
2022/07/28 05:35:12;;;;;;;7.57;5.87;;;20.50;75.00;21.20;96395.00;;;;5115818;28;20309;-84
2022/07/28 05:37:40;;;;;;;6.37;5.77;;;20.50;75.10;21.20;96393.00;;;;5116274;28;20206;-85
2022/07/28 05:40:13;;;;;;;6.73;6.03;;;20.50;75.10;21.30;96397.00;;;;5107148;28;20211;-85
2022/07/28 05:42:42;;;;;;;7.17;6.50;;;20.60;75.00;21.30;96396.00;;;;5114941;28;20227;-85
2022/07/28 05:45:10;;;;;;;6.30;5.57;;;20.60;75.10;21.40;96401.00;;;;5106781;28;20238;-85
2022/07/28 05:47:45;;;;;;;5.87;5.30;;;20.60;75.10;21.40;96409.00;;;;5116816;28;20195;-85
2022/07/28 05:50:14;;;;;;;6.33;5.50;;;20.70;75.20;21.40;96410.00;;;;5117395;28;20226;-84
2022/07/28 05:52:41;;;;;;;6.37;5.77;;;20.70;75.20;21.50;96418.00;;;;5116229;28;20248;-85
2022/07/28 05:55:09;;;;;;;7.50;5.73;;;20.80;75.10;21.50;96419.00;;;;5116143;28;20309;-85
2022/07/28 05:57:38;;;;;;;5.73;5.23;;;20.80;74.90;21.50;96406.00;;;;5099983;28;20278;-83
2022/07/28 06:00:09;;;;;;;6.03;5.20;;;20.80;75.00;21.60;96412.00;;;;5114596;27;20792;-85
2022/07/28 06:02:37;;;;;;;5.27;4.87;;;20.90;75.00;21.60;96417.00;;;;5115399;28;20303;-84
2022/07/28 06:05:06;;;;;;;5.53;5.03;;;20.90;74.90;21.70;96413.00;;;;5115494;28;20238;-85
2022/07/28 06:07:34;;;;;;;5.17;4.70;;;21.00;74.90;21.70;96410.00;;;;5115681;28;20226;-85
2022/07/28 06:10:01;;;;;;;4.90;4.50;;;21.00;74.90;21.80;96408.00;;;;5115503;28;20260;-85
2022/07/28 06:12:28;;;;;;;5.67;5.17;;;21.10;75.00;21.80;96409.00;;;;5115571;28;20282;-85
2022/07/28 06:14:56;;;;;;;4.63;4.27;;;21.10;74.90;21.90;96413.00;;;;5114115;28;20250;-85
2022/07/28 06:17:23;;;;;;;8.57;4.83;;;21.20;75.00;21.90;96411.00;;;;5111064;28;20197;-85
2022/07/28 06:19:50;;;;;;;4.80;4.40;;;21.20;75.00;22.00;96410.00;;;;5114626;28;20307;-84
2022/07/28 06:22:19;;;;;;;4.70;4.17;;;21.30;75.00;22.00;96411.00;;;;5119872;27;20201;-85
2022/07/28 06:24:46;;;;;;;4.37;4.07;;;21.30;75.00;22.10;96415.00;;;;5115228;27;20287;-85
2022/07/28 06:27:13;;;;;;;3.83;3.53;;;21.30;75.00;22.20;96417.00;;;;5095036;28;20227;-85
2022/07/28 06:29:40;;;;;;;4.73;4.30;;;21.40;74.90;22.20;96418.00;;;;5095250;28;20363;-85
2022/07/28 06:32:08;;;;;;;3.90;3.50;;;21.50;74.90;22.30;96424.00;;;;5102814;28;20190;-85
2022/07/28 06:34:35;;;;;;;4.33;3.90;;;21.50;74.80;22.30;96417.00;;;;5114546;28;20328;-85
2022/07/28 06:37:03;;;;;;;4.10;3.70;;;21.60;74.80;22.40;96411.00;;;;5114706;28;20216;-85
2022/07/28 06:39:31;;;;;;;4.07;3.57;;;21.70;74.80;22.50;96419.00;;;;5114368;27;20570;-84
2022/07/28 06:41:58;;;;;;;4.20;3.90;;;21.70;74.70;22.50;96419.00;;;;5104216;28;20251;-84
2022/07/28 06:44:25;;;;;;;3.80;3.50;;;21.80;74.70;22.60;96415.00;;;;5114895;28;20740;-84
2022/07/28 06:46:53;;;;;;;3.67;3.37;;;21.80;74.50;22.70;96419.00;;;;5115374;28;20228;-83
2022/07/28 06:49:21;;;;;;;3.47;3.20;;;21.90;74.50;22.70;96418.00;;;;5103681;28;20250;-83
2022/07/28 06:51:48;;;;;;;3.60;3.10;;;22.00;74.60;22.80;96422.00;;;;5116037;27;20229;-84
2022/07/28 06:54:16;;;;;;;3.53;3.23;;;22.00;74.40;22.90;96420.00;;;;5120508;27;20309;-82
2022/07/28 06:56:44;;;;;;;3.50;3.20;;;22.10;74.30;22.90;96415.00;;;;5114073;28;20275;-83
2022/07/28 06:59:13;;;;;;;3.57;3.23;;;22.20;74.40;23.00;96421.00;;;;5113356;28;20261;-83
2022/07/28 07:01:41;;;;;;;3.67;3.37;;;22.20;74.40;23.10;96417.00;;;;5115134;28;20285;-84
2022/07/28 07:04:08;;;;;;;3.10;2.90;;;22.30;74.90;23.10;96417.00;;;;5115184;28;20202;-83
2022/07/28 07:06:35;;;;;;;3.00;2.70;;;22.40;74.20;23.20;96409.00;;;;5115742;28;20644;-84
2022/07/28 07:09:03;;;;;;;3.30;3.10;;;22.50;74.00;23.30;96408.00;;;;5115923;28;20580;-83
2022/07/28 07:11:30;;;;;;;3.03;2.73;;;22.50;73.90;23.40;96416.00;;;;5112489;28;20242;-83
2022/07/28 07:13:59;;;;;;;2.83;2.47;;;22.60;73.80;23.40;96415.00;;;;5103780;28;20692;-84
2022/07/28 07:16:26;;;;;;;4.03;2.93;;;22.70;73.90;23.60;96425.00;;;;5115034;28;20210;-83
2022/07/28 07:18:54;;;;;;;3.53;3.20;;;22.80;73.90;23.70;96418.00;;;;5102361;28;20215;-83
2022/07/28 07:21:22;;;;;;;3.53;2.87;;;22.90;73.90;23.80;96413.00;;;;5096384;28;20207;-84
2022/07/28 07:23:50;;;;;;;2.73;2.53;;;23.00;73.80;24.00;96414.00;;;;5114664;28;20668;-83
2022/07/28 07:26:17;;;;;;;2.63;2.43;;;23.10;73.80;24.20;96408.00;;;;5113537;28;20238;-84
2022/07/28 07:28:44;;;;;;;3.47;2.90;;;23.30;74.00;24.40;96403.00;;;;5113634;28;20228;-84
2022/07/28 07:31:13;;;;;;;2.90;2.70;;;23.40;73.70;24.60;96402.00;;;;5113294;28;20693;-84
2022/07/28 07:33:40;;;;;;;3.43;2.50;;;23.50;73.40;24.80;96409.00;;;;5114535;28;20231;-84
2022/07/28 07:36:07;;;;;;;3.27;2.70;;;23.70;73.40;25.00;96401.00;;;;5113739;28;20277;-84
2022/07/28 07:38:34;;;;;;;2.53;2.33;;;23.90;72.90;25.10;96405.00;;;;5110883;28;20208;-84
2022/07/28 07:41:02;;;;;;;3.00;2.80;;;24.00;72.70;25.30;96399.00;;;;5113037;28;20202;-83
2022/07/28 07:43:29;;;;;;;4.67;3.00;;;24.20;72.30;25.50;96405.00;;;;5106286;28;20206;-83
2022/07/28 07:45:56;;;;;;;2.97;2.73;;;24.30;72.10;25.70;96394.00;;;;5112296;28;20212;-83
2022/07/28 07:48:25;;;;;;;2.83;2.63;;;24.50;71.90;25.80;96399.00;;;;5115091;28;20284;-84
2022/07/28 07:50:52;;;;;;;2.63;2.37;;;24.60;71.30;26.00;96397.00;;;;5094252;28;20727;-83
2022/07/28 07:53:19;;;;;;;2.83;2.33;;;24.80;71.10;26.10;96398.00;;;;5108250;28;20234;-83
2022/07/28 07:55:46;;;;;;;3.40;2.60;;;24.90;70.70;26.30;96400.00;;;;5113060;28;20219;-83
2022/07/28 07:58:14;;;;;;;2.77;2.57;;;25.10;70.40;26.40;96396.00;;;;5114729;28;20281;-83
2022/07/28 08:00:41;;;;;;;2.40;2.20;;;25.20;70.00;26.60;96395.00;;;;5113512;28;20637;-82
2022/07/28 08:03:09;;;;;;;3.07;2.17;;;25.40;69.80;26.70;96393.00;;;;5114352;28;20278;-83
2022/07/28 08:05:38;;;;;;;2.30;2.10;;;25.50;69.20;26.90;96399.00;;;;5113312;28;20245;-83
2022/07/28 08:08:05;;;;;;;2.40;2.27;;;25.60;69.10;27.00;96396.00;;;;5117459;28;20258;-82
2022/07/28 08:10:33;;;;;;;2.53;2.27;;;25.80;68.80;27.10;96395.00;;;;5126112;28;20944;-82
2022/07/28 08:13:00;;;;;;;2.30;2.10;;;25.90;68.80;27.30;96387.00;;;;5109259;28;20231;-82
2022/07/28 08:15:27;;;;;;;2.77;2.37;;;26.00;68.50;27.40;96399.00;;;;5120815;28;20222;-82
2022/07/28 08:17:55;;;;;;;3.00;2.73;;;26.20;68.20;27.50;96397.00;;;;5105846;28;20211;-82
2022/07/28 08:20:22;;;;;;;2.60;2.40;;;26.30;67.80;27.70;96402.00;;;;5111669;28;20219;-82
2022/07/28 08:22:52;;;;;;;2.87;2.67;;;26.40;67.40;27.80;96399.00;;;;5120685;28;20202;-83
2022/07/28 08:25:20;;;;;;;2.97;2.77;;;26.50;66.60;28.00;96407.00;;;;5118825;28;20663;-83
2022/07/28 08:27:48;;;;;;;5.13;3.03;;;26.70;66.50;28.10;96402.00;;;;5119824;28;20216;-83
2022/07/28 08:30:17;;;;;;;1.90;1.80;;;26.80;66.30;28.30;96401.00;;;;5118247;28;20260;-83
2022/07/28 08:32:45;;;;;;;2.50;2.30;;;27.00;66.30;28.40;96400.00;;;;5120090;28;20236;-83
2022/07/28 08:35:13;;;;;;;2.97;2.10;;;27.10;65.80;28.60;96400.00;;;;5117870;28;20210;-83
2022/07/28 08:37:41;;;;;;;2.50;2.30;;;27.20;65.10;28.70;96411.00;;;;5117945;28;20216;-82
2022/07/28 08:40:13;;;;;;;3.83;2.77;;;27.40;64.80;28.90;96399.00;;;;5117982;28;20218;-83
2022/07/28 08:42:50;;;;;;;3.57;2.53;;;27.50;64.20;29.10;96405.00;;;;5119593;28;20240;-83
2022/07/28 08:45:21;;;;;;;4.07;2.90;;;27.70;64.10;29.30;96400.00;;;;5105846;28;20211;-82
2022/07/28 08:47:50;;;;;;;3.65;2.35;;;27.90;64.40;29.40;96407.00;;;;5098196;28;20252;-82
2022/07/28 08:50:23;;;;;;;2.58;2.08;;;28.00;64.40;29.60;96410.00;;;;5109327;28;20277;-82
2022/07/28 08:52:51;;;;;;;3.25;2.10;;;28.10;63.40;29.80;96405.00;;;;5111199;27;20234;-82
2022/07/28 08:55:25;;;;;;;2.35;2.22;;;28.30;63.50;30.00;96403.00;;;;5117938;28;20247;-82
2022/07/28 08:57:55;;;;;;;2.95;2.30;;;28.40;61.60;30.10;96402.00;;;;5117228;28;20221;-82
2022/07/28 09:00:24;;;;;;;3.53;1.95;;;28.60;62.10;30.30;96396.00;;;;5118044;28;20648;-82
2022/07/28 09:02:52;;;;;;;3.25;1.85;;;28.70;61.50;30.40;96403.00;;;;5100836;28;20220;-82
2022/07/28 09:05:20;;;;;;;1.90;1.80;;;28.90;61.10;30.60;96401.00;;;;5117036;28;20227;-82
2022/07/28 09:07:49;;;;;;;2.70;1.73;;;29.00;60.70;30.80;96395.00;;;;5117098;28;20191;-81
2022/07/28 09:10:18;;;;;;;2.13;1.63;;;29.20;60.50;30.90;96407.00;;;;5116327;28;20301;-82
2022/07/28 09:12:47;;;;;;;1.90;1.70;;;29.30;60.00;31.10;96407.00;;;;5113530;28;20233;-82
2022/07/28 09:15:14;;;;;;;2.38;1.55;;;29.50;59.40;31.30;96409.00;;;;5108915;28;20672;-82
2022/07/28 09:17:42;;;;;;;1.63;1.52;;;29.60;59.00;31.40;96409.00;;;;5113122;28;20234;-82
2022/07/28 09:20:11;;;;;;;1.38;1.27;;;29.70;58.90;31.60;96407.00;;;;5114747;28;20698;-82
2022/07/28 09:22:58;;;;;;;1.45;1.35;;;29.90;58.70;31.80;96407.00;;;;5113451;28;20740;-82
2022/07/28 09:25:29;;;;;;;1.75;1.65;;;30.00;56.80;31.90;96411.00;;;;5111488;28;20220;-82
2022/07/28 09:28:06;;;;;;;2.58;1.30;;;30.20;57.70;32.00;96402.00;;;;5114973;28;20627;-82
2022/07/28 09:30:36;;;;;;;1.30;1.20;;;30.30;57.30;32.20;96406.00;;;;5109374;28;20218;-80
2022/07/28 09:33:17;;;;;;;1.35;1.20;;;30.40;57.30;32.40;96410.00;;;;5114955;28;20560;-80
2022/07/28 09:35:51;;;;;;;4.35;1.38;;;30.60;55.60;32.60;96409.00;;;;5113246;28;20320;-80
2022/07/28 09:38:21;;;;;;;1.60;1.50;;;30.70;56.00;32.80;96406.00;;;;5113509;28;20690;-81
2022/07/28 09:41:00;;;;;;;1.38;1.27;;;30.90;56.40;33.00;96411.00;;;;5115079;28;20219;-82
2022/07/28 09:43:38;;;;;;;2.00;1.48;;;31.10;55.50;33.30;96403.00;;;;5113867;28;20285;-82
2022/07/28 09:46:08;;;;;;;1.20;1.20;;;31.30;55.60;33.50;96402.00;;;;5112855;28;20222;-81
2022/07/28 09:48:50;;;;;;;1.30;1.20;;;31.50;55.80;33.70;96398.00;;;;5113944;28;20282;-81
2022/07/28 09:51:20;;;;;;;1.60;1.50;;;31.70;55.80;34.00;96397.00;;;;5113634;28;20244;-81
2022/07/28 09:53:50;;;;;;;2.30;1.40;;;31.80;55.40;34.20;96402.00;;;;5113464;28;20222;-82
2022/07/28 09:56:17;;;;;;;1.05;1.00;;;32.00;55.20;34.40;96394.00;;;;5112809;28;20268;-81
2022/07/28 09:58:58;;;;;;;1.10;1.10;;;32.10;55.00;34.60;96395.00;;;;5104574;28;20217;-82
2022/07/28 10:01:26;;;;;;;1.20;1.10;;;32.40;53.90;34.80;96394.00;;;;5113096;28;20213;-81
2022/07/28 10:03:56;;;;;;;1.20;1.10;;;32.60;54.50;34.90;96387.00;;;;5110679;28;20289;-82
2022/07/28 10:06:29;;;;;;;1.30;1.30;;;32.70;54.10;35.10;96395.00;;;;5112799;28;20224;-82
2022/07/28 10:08:59;;;;;;;1.65;1.08;;;32.90;53.70;35.10;96391.00;;;;5113419;28;20297;-81
2022/07/28 10:11:29;;;;;;;3.97;0.90;;;33.10;53.70;35.20;96388.00;;;;5116828;28;20309;-81
2022/07/28 10:14:03;;;;;;;1.23;1.10;;;33.20;53.30;35.30;96389.00;;;;5102717;28;20252;-81
2022/07/28 10:16:32;;;;;;;1.45;1.08;;;33.50;52.00;35.40;96389.00;;;;5115931;28;20888;-83
2022/07/28 10:19:03;;;;;;;2.50;1.10;;;33.60;52.10;35.40;96381.00;;;;5111776;28;20246;-81
2022/07/28 10:21:35;;;;;;;2.70;1.33;;;33.80;51.50;35.50;96385.00;;;;5116149;28;20222;-81
2022/07/28 10:24:07;;;;;;;2.33;1.20;;;34.00;51.30;35.60;96382.00;;;;5123563;27;20434;-82
2022/07/28 10:26:42;;;;;;;1.20;1.00;;;34.10;49.90;35.60;96386.00;;;;5105061;28;20221;-82
2022/07/28 10:29:17;;;;;;;2.35;1.35;;;34.30;50.20;35.60;96373.00;;;;5110471;28;20259;-81
2022/07/28 10:31:50;;;;;;;0.93;0.90;;;34.30;50.00;35.70;96379.00;;;;5117700;28;20205;-81
2022/07/28 10:34:22;;;;;;;1.20;1.08;;;34.40;50.50;35.70;96382.00;;;;5116537;28;20205;-81
2022/07/28 10:36:52;;;;;;;1.17;1.10;;;34.50;49.90;35.80;96376.00;;;;5115321;28;20214;-81
2022/07/28 10:39:23;;;;;;;2.38;1.17;;;34.60;49.90;35.80;96374.00;;;;5116704;28;20256;-81
2022/07/28 10:41:51;;;;;;;2.28;0.93;;;34.70;49.30;35.80;96371.00;;;;5114617;28;20222;-83
2022/07/28 10:44:21;;;;;;;1.58;0.80;;;34.70;49.30;35.80;96377.00;;;;5113894;28;20202;-83
2022/07/28 10:46:49;;;;;;;1.00;0.98;;;34.80;48.70;35.80;96370.00;;;;5114017;28;20191;-83
2022/07/28 10:49:17;;;;;;;1.42;1.10;;;34.80;49.70;35.90;96370.00;;;;5115045;28;20263;-82
2022/07/28 10:51:48;;;;;;;1.40;1.20;;;34.90;49.00;35.90;96369.00;;;;5114299;28;20627;-82
2022/07/28 10:54:25;;;;;;;1.42;1.10;;;35.00;48.00;35.80;96373.00;;;;5114352;28;20221;-81
2022/07/28 10:56:56;;;;;;;1.48;1.17;;;35.00;47.70;35.80;96364.00;;;;5113998;28;20245;-81
2022/07/28 11:00:17;;;;;;;1.80;1.00;;;35.00;48.20;35.80;96365.00;;;;5114510;28;20223;-81
2022/07/28 11:02:53;;;;;;;2.58;1.20;;;35.00;47.30;35.70;96371.00;;;;5050734;28;20220;-82
2022/07/28 11:05:40;;;;;;;1.13;1.00;;;35.00;47.00;35.60;96370.00;;;;5048441;28;20384;-81
2022/07/28 11:08:10;;;;;;;2.05;1.10;;;34.90;46.10;35.40;96376.00;;;;5090515;28;20205;-81
2022/07/28 11:10:46;;;;;;;2.13;1.42;;;34.70;46.70;35.20;96378.00;;;;5114628;28;20210;-84